Time;durP1;ratioP1;P1;durP2;ratioP2;P2;SDS_P1;SDS_P2;PMS_P1;PMS_P2;Temp;Humidity;BMP_temperature;BMP_pressure;BME280_temperature;BME280_humidity;BME280_pressure;Samples;Min_cycle;Max_cycle;Signal;HPM_P1;HPM_P2
2021/12/13 00:01:38;;;;;;;0.60;0.50;;;16.90;84.00;;;;;;4991883;28;20051;-66
2021/12/13 00:04:05;;;;;;;0.88;0.50;;;16.90;83.90;;;;;;4986150;28;20054;-66
2021/12/13 00:06:31;;;;;;;0.47;0.40;;;16.90;83.90;;;;;;4990428;28;20505;-66
2021/12/13 00:08:58;;;;;;;0.68;0.52;;;16.90;84.00;;;;;;4992263;28;20050;-66
2021/12/13 00:11:24;;;;;;;0.60;0.43;;;16.90;84.10;;;;;;4991738;28;20495;-66
2021/12/13 00:13:50;;;;;;;0.50;0.40;;;16.90;84.00;;;;;;4992417;28;20116;-66
2021/12/13 00:16:17;;;;;;;0.60;0.40;;;16.90;84.00;;;;;;4992138;28;20042;-66
2021/12/13 00:18:43;;;;;;;0.50;0.50;;;16.90;83.90;;;;;;4992355;28;20129;-66
2021/12/13 00:21:12;;;;;;;0.75;0.50;;;16.90;84.00;;;;;;4991566;28;20043;-66
2021/12/13 00:23:38;;;;;;;1.05;0.60;;;16.90;84.10;;;;;;4992275;28;20388;-66
2021/12/13 00:26:05;;;;;;;0.40;0.40;;;16.90;84.10;;;;;;4991706;28;20125;-66
2021/12/13 00:28:31;;;;;;;0.47;0.47;;;16.90;84.10;;;;;;4995040;28;20130;-66
2021/12/13 00:30:57;;;;;;;0.82;0.68;;;16.90;84.00;;;;;;4995097;28;20042;-66
2021/12/13 00:33:24;;;;;;;0.77;0.43;;;16.90;84.10;;;;;;4995461;28;20042;-66
2021/12/13 00:35:50;;;;;;;0.50;0.40;;;16.90;84.20;;;;;;4995253;28;20046;-66
2021/12/13 00:38:17;;;;;;;0.47;0.30;;;16.90;84.20;;;;;;4995416;28;20132;-66
2021/12/13 00:40:43;;;;;;;0.70;0.43;;;16.90;84.10;;;;;;4995047;28;20054;-66
2021/12/13 00:43:10;;;;;;;0.57;0.50;;;16.90;84.00;;;;;;4995005;28;20051;-66
2021/12/13 00:45:36;;;;;;;0.50;0.50;;;16.90;84.10;;;;;;4994475;28;20129;-66
2021/12/13 00:48:03;;;;;;;0.65;0.60;;;16.90;84.20;;;;;;4995211;28;20049;-66
2021/12/13 00:50:29;;;;;;;0.50;0.35;;;16.90;84.20;;;;;;4995031;28;20125;-66
2021/12/13 00:52:56;;;;;;;0.43;0.43;;;16.90;84.20;;;;;;4995249;28;20052;-66
2021/12/13 00:55:22;;;;;;;1.30;0.65;;;16.90;84.10;;;;;;4994680;28;20046;-66
2021/12/13 00:57:49;;;;;;;0.52;0.52;;;16.90;84.20;;;;;;4994657;28;20504;-66
2021/12/13 01:00:15;;;;;;;0.88;0.47;;;16.90;84.30;;;;;;4994584;28;20141;-66
2021/12/13 01:02:42;;;;;;;0.60;0.50;;;16.90;84.30;;;;;;4988734;28;20046;-66
2021/12/13 01:05:08;;;;;;;0.40;0.40;;;16.90;84.30;;;;;;4984146;28;20050;-66
2021/12/13 01:07:35;;;;;;;0.55;0.43;;;16.90;84.20;;;;;;4994496;28;20056;-66
2021/12/13 01:10:01;;;;;;;0.60;0.60;;;16.90;84.20;;;;;;4994670;28;20558;-66
2021/12/13 01:12:28;;;;;;;0.65;0.40;;;16.90;84.30;;;;;;4995109;28;20121;-66
2021/12/13 01:14:57;;;;;;;0.63;0.50;;;16.90;84.40;;;;;;4994195;28;20093;-66
2021/12/13 01:17:35;;;;;;;0.63;0.50;;;17.00;84.30;;;;;;4994996;28;20097;-66
2021/12/13 01:20:04;;;;;;;0.32;0.32;;;16.90;84.30;;;;;;4994621;28;20136;-66
2021/12/13 01:25:24;;;;;;;1.15;0.50;;;16.90;84.40;;;;;;4990620;28;20129;-66
2021/12/13 01:27:50;;;;;;;0.50;0.40;;;16.90;84.40;;;;;;4994284;28;20042;-66
2021/12/13 01:30:17;;;;;;;0.60;0.50;;;16.90;84.40;;;;;;4994464;28;20133;-66
2021/12/13 01:32:43;;;;;;;0.77;0.60;;;16.90;84.30;;;;;;4993854;28;20046;-64
2021/12/13 01:35:10;;;;;;;0.50;0.50;;;16.90;84.30;;;;;;4994343;28;20490;-64
2021/12/13 01:37:36;;;;;;;0.47;0.43;;;16.90;84.40;;;;;;4993913;28;20053;-64
2021/12/13 01:40:03;;;;;;;0.50;0.43;;;16.90;84.40;;;;;;4994301;28;20133;-66
2021/12/13 01:42:29;;;;;;;0.38;0.38;;;16.90;84.40;;;;;;4993703;28;20496;-66
2021/12/13 01:44:56;;;;;;;0.50;0.50;;;17.00;84.40;;;;;;4994254;28;20050;-66
2021/12/13 01:47:22;;;;;;;0.80;0.50;;;16.90;84.40;;;;;;4993808;28;20125;-66
2021/12/13 01:49:51;;;;;;;0.50;0.50;;;16.90;84.50;;;;;;4994414;28;20053;-66
2021/12/13 01:52:18;;;;;;;1.10;0.52;;;16.90;84.50;;;;;;4993731;28;20400;-66
2021/12/13 01:54:44;;;;;;;0.70;0.50;;;17.00;84.60;;;;;;4993720;28;20141;-66
2021/12/13 01:57:22;;;;;;;0.43;0.40;;;17.00;84.50;;;;;;4994176;28;20222;-66
2021/12/13 01:59:52;;;;;;;0.57;0.57;;;16.90;84.40;;;;;;4993724;28;20058;-66
2021/12/13 02:02:19;;;;;;;0.60;0.57;;;16.90;85.10;;;;;;4992005;28;20057;-66
2021/12/13 02:04:45;;;;;;;0.80;0.50;;;16.90;84.60;;;;;;4993728;28;20054;-64
2021/12/13 02:07:11;;;;;;;0.95;0.50;;;16.90;84.50;;;;;;4993526;28;20061;-64
2021/12/13 02:09:38;;;;;;;0.93;0.60;;;16.90;84.50;;;;;;4993780;28;20105;-66
2021/12/13 02:12:05;;;;;;;0.75;0.70;;;16.90;84.50;;;;;;4993492;28;20479;-66
2021/12/13 02:14:33;;;;;;;1.00;0.77;;;16.90;84.60;;;;;;4985419;28;20062;-67
2021/12/13 02:17:01;;;;;;;0.80;0.68;;;16.90;84.60;;;;;;4990403;28;20050;-66
2021/12/13 02:19:31;;;;;;;0.60;0.60;;;16.90;84.60;;;;;;4993630;28;20057;-64
2021/12/13 02:21:58;;;;;;;0.85;0.60;;;16.90;84.50;;;;;;4993196;28;20108;-64
2021/12/13 02:24:24;;;;;;;1.08;0.70;;;16.90;84.50;;;;;;4993317;28;20140;-64
2021/12/13 02:26:51;;;;;;;0.90;0.75;;;16.90;84.60;;;;;;4993135;28;20141;-64
2021/12/13 02:29:17;;;;;;;0.82;0.70;;;16.90;84.70;;;;;;4983503;28;20153;-64
2021/12/13 02:31:44;;;;;;;1.13;0.57;;;16.90;84.60;;;;;;4987561;28;20062;-64
2021/12/13 02:34:10;;;;;;;1.58;0.55;;;16.90;84.60;;;;;;4991228;28;20089;-64
2021/12/13 02:36:37;;;;;;;1.27;0.80;;;16.90;84.50;;;;;;4992713;28;20418;-64
2021/12/13 02:39:03;;;;;;;0.98;0.70;;;16.90;84.70;;;;;;4993264;28;20085;-64
2021/12/13 02:41:29;;;;;;;1.42;0.80;;;16.90;84.80;;;;;;4992725;28;20394;-64
2021/12/13 02:43:56;;;;;;;1.38;0.70;;;16.90;84.70;;;;;;4973454;28;20057;-66
2021/12/13 02:46:22;;;;;;;1.65;0.60;;;17.00;84.70;;;;;;4984763;28;20422;-66
2021/12/13 02:48:49;;;;;;;1.10;0.70;;;16.90;84.60;;;;;;4992701;28;20132;-66
2021/12/13 02:51:15;;;;;;;1.15;0.80;;;16.90;84.70;;;;;;4992664;28;20052;-66
2021/12/13 02:53:42;;;;;;;1.52;0.93;;;16.90;84.80;;;;;;4989714;28;20050;-66
2021/12/13 02:56:08;;;;;;;0.65;0.50;;;16.90;84.80;;;;;;4973558;28;20405;-66
2021/12/13 02:58:35;;;;;;;0.73;0.50;;;16.90;84.70;;;;;;4984371;28;20129;-66
2021/12/13 03:01:01;;;;;;;0.95;0.70;;;16.90;84.70;;;;;;4977181;28;20043;-66
2021/12/13 03:03:28;;;;;;;1.02;0.70;;;16.90;84.80;;;;;;4983026;28;20145;-67
2021/12/13 03:05:54;;;;;;;1.02;0.60;;;16.90;84.90;;;;;;4992903;28;20070;-66
2021/12/13 03:08:21;;;;;;;1.30;0.68;;;17.00;84.90;;;;;;4991276;28;20128;-66
2021/12/13 03:10:48;;;;;;;0.80;0.50;;;17.00;84.80;;;;;;4976240;28;20415;-66
2021/12/13 03:13:15;;;;;;;1.20;0.80;;;16.90;84.70;;;;;;4993033;28;20055;-66
2021/12/13 03:15:41;;;;;;;0.95;0.70;;;16.90;84.80;;;;;;4992659;28;20046;-64
2021/12/13 03:18:08;;;;;;;0.95;0.73;;;16.90;84.90;;;;;;4992698;28;20129;-64
2021/12/13 03:20:34;;;;;;;0.90;0.50;;;16.90;84.90;;;;;;4992237;28;20517;-64
2021/12/13 03:23:01;;;;;;;1.17;0.63;;;16.90;84.80;;;;;;4979346;28;20524;-64
2021/12/13 03:25:27;;;;;;;1.10;0.60;;;16.90;84.80;;;;;;4973130;28;20047;-64
2021/12/13 03:27:54;;;;;;;0.98;0.73;;;16.90;84.80;;;;;;4988304;28;20049;-63
2021/12/13 03:30:20;;;;;;;0.82;0.70;;;16.90;85.00;;;;;;4973035;28;20141;-64
2021/12/13 03:32:47;;;;;;;0.85;0.55;;;17.00;85.00;;;;;;4991791;28;20061;-64
2021/12/13 03:35:13;;;;;;;0.88;0.50;;;17.00;85.50;;;;;;4992358;28;20039;-64
2021/12/13 03:37:39;;;;;;;1.13;0.70;;;17.00;84.90;;;;;;4992388;28;20134;-64
2021/12/13 03:40:06;;;;;;;0.98;0.73;;;16.90;84.80;;;;;;4992143;28;20486;-64
2021/12/13 03:42:33;;;;;;;0.98;0.60;;;17.00;85.00;;;;;;4992165;28;20053;-64
2021/12/13 03:44:59;;;;;;;1.02;0.70;;;16.90;85.00;;;;;;4992444;28;20137;-64
2021/12/13 03:47:26;;;;;;;1.52;0.65;;;17.00;85.00;;;;;;4992503;28;20101;-64
2021/12/13 03:49:52;;;;;;;0.65;0.40;;;16.90;84.90;;;;;;4990732;28;20130;-64
2021/12/13 03:52:19;;;;;;;0.98;0.47;;;16.90;84.90;;;;;;4992434;28;20050;-64
2021/12/13 03:54:45;;;;;;;0.85;0.47;;;16.90;85.00;;;;;;4992078;28;20489;-64
2021/12/13 03:57:12;;;;;;;0.57;0.52;;;16.90;85.10;;;;;;4992657;28;20053;-64
2021/12/13 03:59:38;;;;;;;1.00;0.73;;;17.00;85.70;;;;;;4984575;28;20042;-64
2021/12/13 04:02:05;;;;;;;0.70;0.47;;;17.00;85.00;;;;;;4995016;28;20142;-64
2021/12/13 04:04:31;;;;;;;0.70;0.55;;;16.90;84.90;;;;;;4986633;28;20559;-65
2021/12/13 04:06:58;;;;;;;3.47;0.77;;;17.00;85.10;;;;;;4996039;28;20073;-64
2021/12/13 04:09:24;;;;;;;0.95;0.70;;;16.90;85.20;;;;;;4996163;28;20141;-64
2021/12/13 04:11:51;;;;;;;0.95;0.50;;;17.00;85.20;;;;;;4995799;28;20138;-64
2021/12/13 04:14:21;;;;;;;0.73;0.50;;;17.00;85.10;;;;;;4995965;28;20146;-64
2021/12/13 04:16:49;;;;;;;0.60;0.40;;;16.90;85.00;;;;;;4995822;28;20043;-65
2021/12/13 04:19:16;;;;;;;1.20;0.63;;;16.90;85.10;;;;;;4993919;28;20105;-65
2021/12/13 04:21:42;;;;;;;1.48;0.63;;;17.00;85.20;;;;;;4995684;28;20048;-65
2021/12/13 04:24:09;;;;;;;1.70;0.60;;;16.90;85.80;;;;;;4995192;28;20492;-65
2021/12/13 04:26:35;;;;;;;0.80;0.50;;;17.00;85.20;;;;;;4995689;28;20125;-65
2021/12/13 04:29:02;;;;;;;1.17;0.63;;;17.00;85.20;;;;;;4995777;28;20145;-65
2021/12/13 04:31:28;;;;;;;0.65;0.55;;;16.90;85.10;;;;;;4994929;28;20511;-65
2021/12/13 04:33:55;;;;;;;0.90;0.57;;;16.90;85.20;;;;;;4983187;28;20053;-65
2021/12/13 04:36:21;;;;;;;0.70;0.52;;;16.90;85.30;;;;;;4980174;28;20053;-65
2021/12/13 04:38:50;;;;;;;1.17;0.50;;;17.00;85.30;;;;;;4984252;28;20057;-65
2021/12/13 04:41:17;;;;;;;0.32;0.30;;;17.00;85.20;;;;;;4976297;28;20085;-65
2021/12/13 04:43:43;;;;;;;0.90;0.50;;;16.90;85.70;;;;;;4975824;28;20053;-65
2021/12/13 04:46:10;;;;;;;0.90;0.60;;;16.90;85.30;;;;;;4989621;28;20473;-65
2021/12/13 04:48:36;;;;;;;0.88;0.40;;;16.90;85.30;;;;;;4987200;28;20108;-65
2021/12/13 04:51:03;;;;;;;1.08;0.50;;;16.90;85.30;;;;;;4995280;28;20052;-65
2021/12/13 04:53:29;;;;;;;1.67;0.60;;;16.90;85.20;;;;;;4995353;28;20053;-65
2021/12/13 04:55:56;;;;;;;0.73;0.50;;;16.90;85.20;;;;;;4995074;28;20050;-65
2021/12/13 04:58:22;;;;;;;0.55;0.40;;;16.90;85.30;;;;;;4978220;28;20404;-65
2021/12/13 05:00:49;;;;;;;0.50;0.50;;;16.90;85.40;;;;;;4975496;28;20046;-65
2021/12/13 05:03:15;;;;;;;0.50;0.38;;;16.90;85.30;;;;;;4975450;28;20051;-65
2021/12/13 05:05:42;;;;;;;0.93;0.55;;;16.90;85.30;;;;;;4989995;28;20061;-65
2021/12/13 05:08:08;;;;;;;1.65;0.45;;;17.00;85.30;;;;;;4993247;28;20129;-65
2021/12/13 05:10:35;;;;;;;0.82;0.52;;;16.90;85.30;;;;;;4995015;28;20092;-65
2021/12/13 05:13:01;;;;;;;0.85;0.40;;;16.90;85.50;;;;;;4994027;28;20093;-65
2021/12/13 05:15:28;;;;;;;0.70;0.30;;;16.90;85.40;;;;;;4981874;28;20047;-65
2021/12/13 05:17:54;;;;;;;0.63;0.40;;;17.00;85.40;;;;;;4992008;28;20164;-65
2021/12/13 05:20:23;;;;;;;0.57;0.30;;;16.90;85.30;;;;;;4994887;28;20042;-65
2021/12/13 05:22:49;;;;;;;0.70;0.40;;;16.90;85.40;;;;;;4976995;28;20051;-65
2021/12/13 05:25:16;;;;;;;0.57;0.50;;;16.90;85.50;;;;;;4978139;28;20486;-65
2021/12/13 05:27:42;;;;;;;0.68;0.38;;;16.90;85.40;;;;;;4994810;28;20046;-65
2021/12/13 05:30:09;;;;;;;0.55;0.25;;;17.00;85.50;;;;;;4994034;28;20125;-65
2021/12/13 05:32:35;;;;;;;1.00;0.40;;;16.90;85.30;;;;;;4994507;28;20558;-65
2021/12/13 05:35:04;;;;;;;1.20;0.60;;;16.90;85.40;;;;;;4994219;28;20145;-65
2021/12/13 05:37:30;;;;;;;0.50;0.40;;;16.90;85.50;;;;;;4977106;28;20051;-65
2021/12/13 05:39:57;;;;;;;1.13;0.60;;;16.90;85.50;;;;;;4975137;28;20054;-65
2021/12/13 05:42:23;;;;;;;1.15;0.40;;;16.90;85.40;;;;;;4994249;28;20133;-65
2021/12/13 05:44:50;;;;;;;1.10;0.45;;;16.90;85.40;;;;;;4994106;28;20133;-65
2021/12/13 05:47:16;;;;;;;1.38;0.57;;;16.90;85.40;;;;;;4980221;28;20055;-65
2021/12/13 05:49:43;;;;;;;0.47;0.30;;;16.90;85.50;;;;;;4974615;28;20057;-66
2021/12/13 05:52:09;;;;;;;0.73;0.40;;;17.00;85.60;;;;;;4992426;28;20053;-66
2021/12/13 05:54:36;;;;;;;0.73;0.40;;;16.90;85.40;;;;;;4993169;28;20572;-65
2021/12/13 05:57:02;;;;;;;0.63;0.22;;;16.90;85.40;;;;;;4977284;28;20046;-65
2021/12/13 05:59:29;;;;;;;0.60;0.30;;;16.90;85.40;;;;;;4992486;28;20046;-65
2021/12/13 06:01:55;;;;;;;0.85;0.50;;;17.00;85.50;;;;;;4993056;28;20109;-66
2021/12/13 06:04:21;;;;;;;0.70;0.40;;;16.90;85.60;;;;;;4976158;28;20062;-65
2021/12/13 06:06:48;;;;;;;0.50;0.40;;;16.90;86.10;;;;;;4992929;28;20056;-65
2021/12/13 06:09:14;;;;;;;1.05;0.40;;;16.90;85.50;;;;;;4993543;28;20074;-65
2021/12/13 06:11:41;;;;;;;1.02;0.47;;;17.00;85.50;;;;;;4993679;28;20050;-66
2021/12/13 06:14:07;;;;;;;0.77;0.50;;;16.90;85.50;;;;;;4993361;28;20482;-65
2021/12/13 06:16:34;;;;;;;1.90;0.32;;;16.90;85.60;;;;;;4993768;28;20050;-65
2021/12/13 06:19:01;;;;;;;0.85;0.43;;;17.00;85.60;;;;;;4978316;28;20046;-65
2021/12/13 06:21:27;;;;;;;1.38;0.30;;;16.90;85.50;;;;;;4982410;28;20129;-65
2021/12/13 06:23:53;;;;;;;0.68;0.38;;;16.90;85.50;;;;;;4987989;28;20043;-65
2021/12/13 06:26:20;;;;;;;1.25;0.40;;;16.90;85.50;;;;;;4993045;28;20510;-66
2021/12/13 06:28:46;;;;;;;0.68;0.40;;;16.90;85.60;;;;;;4981803;28;20046;-65
2021/12/13 06:31:13;;;;;;;0.68;0.35;;;16.90;85.60;;;;;;4986478;28;20043;-65
2021/12/13 06:33:39;;;;;;;0.82;0.43;;;16.90;85.50;;;;;;4992740;28;20690;-66
2021/12/13 06:36:06;;;;;;;1.00;0.30;;;16.90;85.50;;;;;;4989856;28;20048;-65
2021/12/13 06:38:32;;;;;;;1.40;0.40;;;16.90;85.50;;;;;;4992798;28;20153;-65
2021/12/13 06:40:59;;;;;;;0.98;0.30;;;16.90;85.60;;;;;;4989752;28;20129;-65
2021/12/13 06:43:25;;;;;;;3.15;0.50;;;16.90;85.70;;;;;;4986246;28;20138;-65
2021/12/13 06:45:52;;;;;;;0.82;0.50;;;17.00;85.70;;;;;;4992637;28;20153;-66
2021/12/13 06:48:18;;;;;;;1.45;0.50;;;16.90;85.60;;;;;;4993053;28;20142;-65
2021/12/13 06:50:45;;;;;;;1.10;0.40;;;16.90;85.50;;;;;;4992517;28;20455;-65
2021/12/13 06:53:11;;;;;;;1.20;0.47;;;16.90;85.60;;;;;;4992958;28;20121;-65
2021/12/13 06:55:37;;;;;;;1.05;0.30;;;16.90;85.70;;;;;;4986070;28;20133;-65
2021/12/13 06:58:04;;;;;;;0.70;0.40;;;16.90;85.70;;;;;;4992951;28;20495;-66
2021/12/13 07:00:32;;;;;;;0.70;0.30;;;16.90;85.60;;;;;;4992610;28;20129;-65
2021/12/13 07:02:58;;;;;;;0.80;0.40;;;16.90;85.60;;;;;;4993096;28;20046;-65
2021/12/13 07:05:25;;;;;;;0.70;0.40;;;16.90;85.60;;;;;;4992163;28;20062;-66
2021/12/13 07:07:51;;;;;;;0.43;0.30;;;16.90;85.70;;;;;;4991535;28;20046;-65
2021/12/13 07:10:17;;;;;;;0.43;0.30;;;16.90;85.80;;;;;;4991747;28;20422;-64
2021/12/13 07:12:44;;;;;;;0.65;0.35;;;16.90;85.70;;;;;;4992849;28;20137;-66
2021/12/13 07:15:10;;;;;;;1.58;0.40;;;17.00;85.70;;;;;;4991892;28;20066;-65
2021/12/13 07:17:37;;;;;;;1.55;0.50;;;16.90;85.80;;;;;;4992408;28;20133;-65
2021/12/13 07:20:03;;;;;;;1.92;0.52;;;16.90;86.00;;;;;;4992781;28;20078;-65
2021/12/13 07:22:30;;;;;;;1.08;0.40;;;16.90;86.10;;;;;;4992312;28;20443;-65
2021/12/13 07:24:56;;;;;;;0.85;0.30;;;16.90;86.10;;;;;;4992485;28;20082;-65
2021/12/13 07:27:23;;;;;;;0.93;0.50;;;16.90;86.10;;;;;;4992629;28;20133;-65
2021/12/13 07:29:49;;;;;;;2.30;0.82;;;16.90;86.00;;;;;;4992912;28;20070;-65
2021/12/13 07:32:16;;;;;;;3.90;0.68;;;16.90;86.20;;;;;;4992473;28;20053;-65
2021/12/13 07:34:42;;;;;;;0.90;0.50;;;17.00;86.40;;;;;;4992684;28;20042;-65
2021/12/13 07:37:09;;;;;;;1.38;0.60;;;16.90;86.30;;;;;;4995689;28;20077;-66
2021/12/13 07:39:35;;;;;;;1.23;0.47;;;16.90;86.20;;;;;;4996308;28;20082;-65
2021/12/13 07:42:02;;;;;;;2.10;0.70;;;16.90;86.20;;;;;;4995999;28;20049;-65
2021/12/13 07:44:28;;;;;;;0.80;0.50;;;16.90;86.20;;;;;;4996457;28;20098;-65
2021/12/13 07:46:55;;;;;;;1.25;0.45;;;16.90;86.40;;;;;;4996743;28;20081;-65
2021/12/13 07:49:21;;;;;;;1.48;0.30;;;16.90;86.50;;;;;;4996352;28;20089;-65
2021/12/13 07:51:48;;;;;;;1.60;0.40;;;16.90;86.40;;;;;;4995886;28;20125;-65
2021/12/13 07:54:14;;;;;;;0.90;0.32;;;16.90;86.30;;;;;;4979143;28;20129;-65
2021/12/13 07:56:41;;;;;;;0.65;0.32;;;16.90;86.30;;;;;;4976744;28;20142;-65
2021/12/13 07:59:07;;;;;;;1.65;0.45;;;16.90;86.40;;;;;;4976844;28;20074;-65
2021/12/13 08:01:33;;;;;;;1.13;0.60;;;16.90;86.60;;;;;;4995290;28;20054;-65
2021/12/13 08:04:00;;;;;;;1.08;0.40;;;16.90;86.50;;;;;;4996017;28;20145;-66
2021/12/13 08:06:26;;;;;;;0.70;0.40;;;16.90;86.40;;;;;;4996015;28;20070;-65
2021/12/13 08:08:53;;;;;;;0.60;0.30;;;16.90;86.40;;;;;;4995891;28;20050;-65
2021/12/13 08:11:19;;;;;;;1.10;0.50;;;16.90;86.50;;;;;;4995849;28;20043;-65
2021/12/13 08:13:46;;;;;;;1.77;0.45;;;16.90;86.60;;;;;;4995801;28;20487;-66
2021/12/13 08:16:12;;;;;;;1.67;0.50;;;16.90;86.60;;;;;;4995926;28;20396;-65
2021/12/13 08:18:39;;;;;;;1.20;0.50;;;16.90;86.60;;;;;;4995856;28;20051;-65
2021/12/13 08:21:05;;;;;;;0.40;0.40;;;16.90;86.50;;;;;;4995492;28;20053;-65
2021/12/13 08:23:35;;;;;;;0.75;0.55;;;16.90;86.40;;;;;;4995510;28;20050;-65
2021/12/13 08:26:01;;;;;;;0.93;0.60;;;16.90;86.60;;;;;;4995707;28;20174;-65
2021/12/13 08:28:28;;;;;;;2.03;0.60;;;16.90;86.70;;;;;;4995791;28;20133;-65
2021/12/13 08:30:54;;;;;;;0.88;0.55;;;16.90;86.60;;;;;;4995112;28;20053;-65
2021/12/13 08:33:21;;;;;;;1.08;0.40;;;16.90;86.50;;;;;;4995598;28;20129;-65
2021/12/13 08:35:47;;;;;;;1.33;0.60;;;17.00;86.60;;;;;;4995492;28;20049;-65
2021/12/13 08:38:14;;;;;;;1.10;0.50;;;16.90;86.60;;;;;;4995508;28;20046;-65
2021/12/13 08:40:40;;;;;;;0.90;0.50;;;16.90;86.70;;;;;;4995665;28;20137;-65
2021/12/13 08:43:07;;;;;;;1.20;0.60;;;16.90;86.70;;;;;;4995522;28;20093;-65
2021/12/13 08:45:35;;;;;;;1.55;0.60;;;17.00;86.70;;;;;;4995317;28;20054;-65
2021/12/13 08:48:01;;;;;;;1.50;0.75;;;16.90;86.60;;;;;;4994256;28;20097;-65
2021/12/13 08:50:28;;;;;;;1.23;0.70;;;16.90;86.60;;;;;;4995429;28;20057;-65
2021/12/13 08:52:55;;;;;;;0.75;0.60;;;16.90;86.70;;;;;;4991139;28;20049;-66
2021/12/13 08:55:21;;;;;;;1.17;0.68;;;16.90;86.70;;;;;;4995292;28;20053;-65
2021/12/13 08:57:48;;;;;;;1.60;0.60;;;16.90;86.60;;;;;;4994833;28;20038;-65
2021/12/13 09:00:14;;;;;;;1.33;0.60;;;16.90;86.60;;;;;;4994827;28;20050;-65
2021/12/13 09:02:41;;;;;;;1.30;0.90;;;16.90;86.50;;;;;;4994846;28;20043;-65
2021/12/13 09:05:07;;;;;;;0.88;0.63;;;16.90;86.70;;;;;;4994688;28;20109;-65
2021/12/13 09:07:34;;;;;;;1.13;0.70;;;16.90;86.80;;;;;;4994969;28;20138;-65
2021/12/13 09:10:00;;;;;;;1.17;0.70;;;16.90;86.70;;;;;;4994885;28;20054;-65
2021/12/13 09:12:27;;;;;;;1.63;0.60;;;17.00;86.70;;;;;;4994587;28;20419;-65
2021/12/13 09:14:55;;;;;;;1.27;0.77;;;16.90;86.60;;;;;;4994952;28;20073;-65
2021/12/13 09:17:22;;;;;;;2.47;1.00;;;16.90;86.60;;;;;;4994687;28;20046;-65
2021/12/13 09:19:49;;;;;;;1.20;0.88;;;16.90;86.80;;;;;;4994931;28;20362;-66
2021/12/13 09:22:15;;;;;;;1.65;0.90;;;16.90;86.80;;;;;;4994705;28;20047;-65
2021/12/13 09:24:42;;;;;;;1.63;0.80;;;16.90;86.80;;;;;;4994540;28;20138;-65
2021/12/13 09:27:08;;;;;;;0.90;0.60;;;17.00;86.70;;;;;;4994287;28;20483;-65
2021/12/13 09:29:35;;;;;;;1.15;0.82;;;17.00;86.70;;;;;;4994427;28;20136;-66
2021/12/13 09:32:02;;;;;;;0.95;0.80;;;17.00;86.80;;;;;;4994199;28;20133;-65
2021/12/13 09:34:28;;;;;;;1.00;0.80;;;16.90;86.80;;;;;;4994657;28;20061;-65
2021/12/13 09:36:54;;;;;;;1.42;0.70;;;16.90;86.80;;;;;;4994629;28;20451;-65
2021/12/13 09:39:21;;;;;;;1.35;0.75;;;17.00;86.80;;;;;;4994475;28;20121;-65
2021/12/13 09:41:47;;;;;;;1.10;0.77;;;17.00;86.70;;;;;;4994429;28;20046;-65
2021/12/13 09:44:15;;;;;;;1.50;1.00;;;16.90;86.70;;;;;;4993914;28;20526;-65
2021/12/13 09:46:42;;;;;;;1.15;0.90;;;16.90;86.80;;;;;;4994347;28;20125;-65
2021/12/13 09:49:08;;;;;;;1.17;0.70;;;16.90;86.80;;;;;;4994211;28;20050;-65
2021/12/13 09:51:35;;;;;;;0.85;0.80;;;16.90;86.80;;;;;;4975545;28;20051;-66
2021/12/13 09:54:01;;;;;;;1.67;0.90;;;17.00;86.80;;;;;;4974678;28;20082;-65
2021/12/13 09:56:28;;;;;;;1.70;1.00;;;16.90;86.70;;;;;;4983261;28;20070;-66
2021/12/13 09:58:54;;;;;;;1.23;1.00;;;16.90;86.80;;;;;;4993811;28;20056;-65
2021/12/13 10:01:21;;;;;;;1.30;0.93;;;16.90;86.90;;;;;;4993997;28;20133;-65
2021/12/13 10:03:47;;;;;;;1.58;0.88;;;17.00;86.90;;;;;;4993892;28;20046;-65
2021/12/13 10:06:14;;;;;;;1.00;0.90;;;17.00;86.80;;;;;;4993360;28;20051;-65
2021/12/13 10:08:41;;;;;;;0.82;0.65;;;17.00;86.80;;;;;;4993766;28;20616;-65
2021/12/13 10:11:08;;;;;;;1.27;0.90;;;17.00;86.70;;;;;;4993806;28;20121;-65
2021/12/13 10:13:35;;;;;;;1.50;1.02;;;16.90;86.80;;;;;;4993456;28;20129;-65
2021/12/13 10:16:02;;;;;;;1.70;0.98;;;17.00;86.90;;;;;;4993820;28;20050;-65
2021/12/13 10:18:28;;;;;;;0.88;0.82;;;17.00;87.40;;;;;;4993762;28;20108;-65
2021/12/13 10:20:55;;;;;;;1.60;0.82;;;17.00;86.80;;;;;;4993677;28;20053;-65
2021/12/13 10:23:21;;;;;;;1.85;1.00;;;17.00;86.70;;;;;;4993375;28;20050;-66
2021/12/13 10:25:48;;;;;;;1.17;0.90;;;17.00;86.80;;;;;;4993468;28;20574;-65
2021/12/13 10:28:14;;;;;;;1.40;1.00;;;17.00;86.90;;;;;;4993123;28;20046;-65
2021/12/13 10:30:41;;;;;;;1.45;0.80;;;17.00;86.90;;;;;;4993312;28;20052;-65
2021/12/13 10:33:07;;;;;;;1.10;0.80;;;17.00;86.90;;;;;;4993170;28;20133;-66
2021/12/13 10:35:34;;;;;;;0.90;0.80;;;17.00;86.80;;;;;;4993380;28;20048;-66
2021/12/13 10:38:00;;;;;;;1.10;0.85;;;17.00;86.80;;;;;;4993326;28;20164;-65
2021/12/13 10:40:27;;;;;;;1.15;1.00;;;17.00;86.80;;;;;;4992925;28;20056;-65
2021/12/13 10:42:53;;;;;;;1.23;0.90;;;17.00;87.00;;;;;;4993114;28;20133;-66
2021/12/13 10:45:20;;;;;;;1.02;0.90;;;17.00;87.00;;;;;;4993020;28;20137;-65
2021/12/13 10:47:46;;;;;;;1.00;0.80;;;17.00;86.90;;;;;;4993371;28;20152;-65
2021/12/13 10:50:12;;;;;;;1.40;0.95;;;17.00;86.80;;;;;;4974451;28;20125;-65
2021/12/13 10:52:39;;;;;;;1.42;0.90;;;17.00;86.80;;;;;;4973861;28;20129;-65
2021/12/13 10:55:05;;;;;;;1.13;1.00;;;17.00;86.90;;;;;;4990692;28;20518;-66
2021/12/13 10:57:32;;;;;;;1.20;1.10;;;17.00;87.00;;;;;;4992496;28;20125;-65
2021/12/13 10:59:59;;;;;;;2.45;0.80;;;17.00;87.00;;;;;;4992957;28;20086;-65
2021/12/13 11:02:26;;;;;;;1.20;1.10;;;17.00;86.90;;;;;;4992852;28;20466;-65
2021/12/13 11:04:52;;;;;;;1.00;0.90;;;17.00;86.80;;;;;;4991608;28;20093;-66
2021/12/13 11:07:19;;;;;;;10.90;1.02;;;17.00;86.90;;;;;;4987326;28;20137;-65
2021/12/13 11:09:45;;;;;;;1.30;1.10;;;17.00;87.00;;;;;;4990845;28;20522;-66
2021/12/13 11:12:12;;;;;;;1.10;1.00;;;17.00;87.20;;;;;;4990454;28;20121;-65
2021/12/13 11:14:38;;;;;;;1.52;1.00;;;17.10;87.40;;;;;;4989387;28;20129;-65
2021/12/13 11:17:05;;;;;;;0.77;0.73;;;17.20;87.30;;;;;;4989645;28;20134;-65
2021/12/13 11:19:31;;;;;;;1.00;0.80;;;17.30;87.10;;;;;;4988970;28;20491;-66
2021/12/13 11:22:01;;;;;;;1.52;0.70;;;17.60;87.00;;;;;;4989994;28;20046;-65
2021/12/13 11:24:27;;;;;;;0.70;0.70;;;17.80;86.80;;;;;;4989621;28;20050;-66
2021/12/13 11:26:54;;;;;;;0.73;0.60;;;18.00;86.50;;;;;;4988967;28;20054;-66
2021/12/13 11:29:20;;;;;;;0.57;0.50;;;18.30;86.20;;;;;;4989930;28;20229;-65
2021/12/13 11:31:47;;;;;;;1.42;0.70;;;18.50;85.90;;;;;;4989792;28;20133;-65
2021/12/13 11:34:13;;;;;;;1.95;0.63;;;18.80;85.60;;;;;;4989915;28;20129;-65
2021/12/13 11:36:40;;;;;;;0.85;0.60;;;19.00;85.30;;;;;;4989910;28;20446;-66
2021/12/13 11:39:06;;;;;;;1.77;0.90;;;19.20;85.00;;;;;;4989930;28;20046;-66
2021/12/13 11:41:34;;;;;;;0.95;0.68;;;19.40;84.70;;;;;;4989347;28;20046;-66
2021/12/13 11:44:01;;;;;;;1.23;0.60;;;19.60;84.40;;;;;;4989739;28;20046;-66
2021/12/13 11:46:28;;;;;;;0.90;0.80;;;19.80;84.20;;;;;;4989712;28;20062;-66
2021/12/13 11:48:55;;;;;;;1.17;0.73;;;20.00;83.90;;;;;;4970331;28;20441;-66
2021/12/13 11:51:21;;;;;;;0.82;0.70;;;20.20;83.70;;;;;;4979319;28;20133;-66
2021/12/13 11:53:48;;;;;;;0.63;0.60;;;20.30;83.50;;;;;;4989030;28;20086;-65
2021/12/13 11:56:14;;;;;;;1.40;0.70;;;20.40;83.30;;;;;;4989128;28;20078;-65
2021/12/13 11:58:42;;;;;;;0.93;0.60;;;20.50;83.10;;;;;;4989428;28;20125;-65
2021/12/13 12:01:08;;;;;;;0.68;0.68;;;20.60;83.00;;;;;;4985533;28;20131;-65
2021/12/13 12:03:35;;;;;;;0.70;0.60;;;20.70;82.90;;;;;;4989004;28;20049;-65
2021/12/13 12:06:02;;;;;;;0.63;0.60;;;20.70;82.80;;;;;;4988647;28;20062;-65
2021/12/13 12:08:28;;;;;;;0.88;0.73;;;20.80;82.80;;;;;;4989380;28;20042;-65
2021/12/13 12:10:55;;;;;;;1.33;0.70;;;20.80;82.70;;;;;;4989440;28;20054;-65
2021/12/13 12:13:26;;;;;;;0.95;0.75;;;20.90;82.70;;;;;;4989510;28;20126;-65
2021/12/13 12:15:55;;;;;;;0.93;0.82;;;20.90;82.60;;;;;;4989437;28;20113;-67
2021/12/13 12:18:21;;;;;;;1.08;0.80;;;20.90;82.50;;;;;;4989562;28;20046;-65
2021/12/13 12:20:48;;;;;;;1.60;1.00;;;21.00;82.60;;;;;;4988725;28;20046;-65
2021/12/13 12:23:14;;;;;;;0.98;0.70;;;21.00;82.50;;;;;;4992152;28;20674;-66
2021/12/13 12:25:40;;;;;;;1.38;0.80;;;21.00;82.50;;;;;;4992329;28;20143;-65
2021/12/13 12:28:07;;;;;;;0.85;0.85;;;21.00;82.50;;;;;;4994264;28;20354;-65
2021/12/13 12:30:33;;;;;;;2.92;0.70;;;21.00;82.40;;;;;;4994761;28;20042;-65
2021/12/13 12:33:00;;;;;;;1.20;0.85;;;21.10;82.50;;;;;;4994701;28;20129;-65
2021/12/13 12:35:27;;;;;;;1.08;0.80;;;21.00;82.40;;;;;;4995179;28;20057;-65
2021/12/13 12:37:53;;;;;;;0.63;0.63;;;20.90;82.40;;;;;;4994812;28;20089;-65
2021/12/13 12:40:20;;;;;;;0.93;0.75;;;20.80;82.60;;;;;;4994300;28;20563;-65
2021/12/13 12:42:46;;;;;;;0.90;0.80;;;20.70;82.70;;;;;;4994827;28;20050;-64
2021/12/13 12:45:13;;;;;;;1.13;1.02;;;20.60;82.80;;;;;;4994398;28;20551;-65
2021/12/13 12:47:39;;;;;;;0.93;0.80;;;20.50;82.90;;;;;;4994368;28;20061;-65